KBDL

Bradley International Airport

Airport
ICAO code
KBDL
IATA Code
BDL
Summary
ICAO Region
NAM
ICAO Territory
Location

Windsor Locks , Connecticut

Serving
Hartford
Elevation
173 ft
Coordinates
41° 55' 43" N , 72° 41' 2" W
KCC
Metar
KBDL 142251Z 15008KT 10SM -RA FEW065 SCT075 BKN090 BKN200 12/08 A2967 RMK AO2 RAE2157B48 PRESFR SLP049 PCPN VRY LGT P0000 T01170078 $

Description

Bradley International Airport is a joint civil-military (ANG) public airport located in Windsor Locks, Connecticut, USA.

Airport map

Aerial View

SKYbrary Partners:

Safety knowledge contributed by: